Fire Weather Observation
Issued by NWS Grand Junction, CO

Home | Current Version | Previous Version | Graphics & Text | Print | Product List | Glossary On
Versions: 1 2 3 4 5 6 7 8 9 10 11 12 13 14 15 16 17 18 19 20 21 22 23 24 25 26 27 28 29 30 31 32 33 34 35 36 37 38 39 40 41 42 43 44 45 46 47 48 49 50
000
SHUS65 KGJT 272030
FWOGJT

DAILY FIRE WEATHER OBSERVATION
NATIONAL WEATHER SERVICE GRAND JUNCTION CO
230 PM MDT WED MAY 27 2015

STATE OF THE WEATHER (W)               1
DRY BULB TEMPERATURE                   70   DEGREES FAHRENHEIT
RELATIVE HUMIDITY (RH)                 42   PERCENT
LIGHTNING ACTIVITY LEVEL
  (LAL - MIDNIGHT TO 2 PM)             1
WIND DIRECTION                         360  DEGREES (C IF CALM)
WIND SPEED                             3    MPH
MAX TEMP (2 PM - 2 PM)                 70   DEGREES FAHRENHEIT
MIN TEMP (2 PM - 2 PM)                 45   DEGREES FAHRENHEIT
MAX RH (2 PM - 2 PM)                   100  PERCENT
MIN RH (2 PM - 2 PM)                   40   PERCENT
PCPN DURATION                          22.4 HOURS
PCPN AMT (2 PM - 2 PM)                 0.07 INCHES
LAL (2 PM - 2 PM)                      5

$$

METAR KGJT 271953Z 02003KT 10SM CLR 21/08 A3006 RMK AO2 SLP135
      T02110078



USA.gov is the U.S. government's official web portal to all federal, state and local government web resources and services.